createdAt,value
2023-03-30T00:03:55.959Z,82.13
2023-03-30T00:08:59.654Z,81.49
2023-03-30T00:14:01.728Z,80.91
2023-03-30T00:19:03.425Z,82.05
2023-03-30T00:24:05.136Z,84.85
2023-03-30T00:29:06.764Z,85.13
2023-03-30T00:34:09.622Z,85.38
2023-03-30T00:39:11.267Z,85.50
2023-03-30T00:44:50.973Z,84.10
2023-03-30T00:49:53.344Z,85.50
2023-03-30T00:54:57.405Z,88.48
2023-03-30T00:59:59.155Z,88.22
2023-03-30T01:05:04.018Z,89.66
2023-03-30T01:10:08.352Z,90.33
2023-03-30T01:15:10.970Z,89.97
2023-03-30T01:20:25.643Z,92.06
2023-03-30T01:25:46.070Z,93.00
2023-03-30T01:30:50.710Z,93.03
2023-03-30T01:36:13.895Z,94.06
2023-03-30T01:41:31.260Z,95.92
2023-03-30T01:46:40.349Z,96.41
2023-03-30T01:52:05.622Z,96.81
2023-03-30T01:57:22.270Z,96.82
2023-03-30T02:02:29.269Z,96.38
2023-03-30T02:07:33.459Z,96.09
2023-03-30T02:12:36.407Z,95.40
2023-03-30T02:17:38.354Z,95.11
2023-03-30T02:22:40.784Z,96.99
2023-03-30T02:27:42.830Z,98.32
2023-03-30T02:32:48.521Z,99.01
2023-03-30T02:38:02.284Z,98.04
2023-03-30T02:43:37.922Z,99.26
2023-03-30T02:49:26.901Z,100.00
2023-03-30T02:54:55.111Z,100.00
2023-03-30T03:00:39.257Z,100.00
2023-03-30T03:05:44.870Z,100.00
2023-03-30T03:10:49.615Z,100.00
2023-03-30T03:15:56.051Z,100.00
2023-03-30T03:20:59.308Z,100.00
2023-03-30T03:26:01.126Z,100.00
2023-03-30T03:31:06.557Z,100.00
2023-03-30T03:36:12.257Z,100.00
2023-03-30T03:41:20.626Z,100.00
2023-03-30T03:46:22.486Z,100.00
2023-03-30T03:51:24.197Z,100.00
2023-03-30T03:56:26.840Z,100.00
2023-03-30T04:01:31.624Z,100.00
2023-03-30T04:06:33.270Z,100.00
2023-03-30T04:11:35.013Z,100.00
2023-03-30T04:16:58.063Z,100.00
2023-03-30T04:22:41.728Z,100.00
2023-03-30T04:28:15.850Z,100.00
2023-03-30T04:33:35.074Z,100.00
2023-03-30T04:38:58.802Z,100.00
2023-03-30T04:44:22.125Z,100.00
2023-03-30T04:49:42.242Z,100.00
2023-03-30T04:55:12.887Z,100.00
2023-03-30T05:00:42.503Z,100.00
2023-03-30T05:05:57.732Z,100.00
2023-03-30T05:11:18.185Z,100.00
2023-03-30T05:16:25.773Z,100.00
2023-03-30T05:21:42.488Z,100.00
2023-03-30T05:27:02.926Z,100.00
2023-03-30T05:32:14.265Z,100.00
2023-03-30T05:37:28.125Z,100.00
2023-03-30T05:42:36.676Z,100.00
2023-03-30T05:47:45.978Z,100.00
2023-03-30T05:52:59.698Z,100.00
2023-03-30T05:58:18.801Z,100.00
2023-03-30T06:03:39.111Z,99.45
2023-03-30T06:08:42.378Z,97.23
2023-03-30T06:13:50.521Z,97.05
2023-03-30T06:18:52.216Z,97.46
2023-03-30T06:23:53.859Z,96.52
2023-03-30T06:28:58.449Z,95.13
2023-03-30T06:34:01.096Z,87.93
2023-03-30T06:39:06.486Z,75.82
2023-03-30T06:44:14.805Z,72.29
2023-03-30T06:49:16.896Z,71.57
2023-03-30T06:54:20.416Z,71.24
2023-03-30T06:59:29.486Z,70.18
2023-03-30T07:05:01.188Z,70.53
2023-03-30T07:10:22.327Z,70.47
2023-03-30T07:15:24.889Z,70.18
2023-03-30T07:20:27.509Z,68.42
2023-03-30T07:25:42.055Z,66.99
2023-03-30T07:31:24.632Z,65.72
2023-03-30T07:36:27.011Z,69.25
2023-03-30T07:41:29.531Z,67.77
2023-03-30T07:46:34.272Z,71.35
2023-03-30T07:51:36.564Z,69.47
2023-03-30T07:56:52.787Z,69.39
2023-03-30T08:01:56.228Z,72.15
2023-03-30T08:07:20.165Z,72.98
2023-03-30T08:12:28.179Z,71.80
2023-03-30T08:17:30.043Z,69.20
2023-03-30T08:22:31.872Z,68.23
2023-03-30T08:27:34.214Z,67.54
2023-03-30T08:32:35.844Z,67.33
2023-03-30T08:37:37.440Z,66.80
2023-03-30T08:42:57.207Z,67.33
2023-03-30T08:47:59.921Z,68.53
2023-03-30T08:53:04.697Z,68.67
2023-03-30T08:58:27.207Z,68.63
2023-03-30T09:03:50.670Z,67.98
2023-03-30T09:08:52.694Z,67.90
2023-03-30T09:13:56.181Z,69.01
2023-03-30T09:18:59.242Z,69.03
2023-03-30T09:24:12.152Z,69.13
2023-03-30T09:29:30.715Z,70.74
2023-03-30T09:34:54.409Z,71.06
2023-03-30T09:39:59.044Z,73.88
2023-03-30T09:45:21.282Z,77.66
2023-03-30T09:50:26.896Z,79.74
2023-03-30T09:55:31.528Z,81.20
2023-03-30T10:00:34.203Z,81.03
2023-03-30T10:05:37.991Z,81.42
2023-03-30T10:10:41.106Z,83.16
2023-03-30T10:15:46.237Z,85.78
2023-03-30T10:21:00.538Z,88.94
2023-03-30T10:26:04.467Z,90.92
2023-03-30T10:31:16.221Z,90.39
2023-03-30T10:36:19.486Z,88.65
2023-03-30T10:41:23.626Z,88.57
2023-03-30T10:46:25.639Z,90.17
2023-03-30T10:51:42.462Z,88.46
2023-03-30T10:56:46.392Z,86.92
2023-03-30T11:02:29.418Z,85.89
2023-03-30T11:07:40.119Z,83.35
2023-03-30T11:12:46.602Z,81.78
2023-03-30T11:17:57.402Z,81.86
2023-03-30T11:23:21.810Z,81.66
2023-03-30T11:28:47.980Z,81.60
2023-03-30T11:34:08.677Z,79.79
2023-03-30T11:39:31.124Z,79.15
2023-03-30T11:44:33.898Z,78.42
2023-03-30T11:49:53.654Z,76.78
2023-03-30T11:55:23.949Z,74.64
2023-03-30T12:00:41.099Z,72.26
2023-03-30T12:05:46.146Z,68.80
2023-03-30T12:10:55.247Z,69.12
2023-03-30T12:16:12.234Z,70.98
2023-03-30T12:21:32.805Z,70.71
2023-03-30T12:26:36.262Z,68.64
2023-03-30T12:31:53.312Z,67.87
2023-03-30T12:37:04.361Z,68.73
2023-03-30T12:42:10.191Z,67.77
2023-03-30T12:47:50.645Z,66.58
2023-03-30T12:53:19.521Z,66.17
2023-03-30T12:58:43.783Z,64.88
2023-03-30T13:03:54.517Z,62.21
2023-03-30T13:09:15.499Z,63.78
2023-03-30T13:14:39.683Z,65.12
2023-03-30T13:19:45.543Z,64.23
2023-03-30T13:24:54.397Z,64.98
2023-03-30T13:29:59.147Z,65.65
2023-03-30T13:35:32.544Z,66.55
2023-03-30T13:41:01.579Z,67.38
2023-03-30T13:46:29.632Z,68.60
2023-03-30T13:51:32.763Z,68.26
2023-03-30T13:56:39.317Z,67.76
2023-03-30T14:01:45.386Z,64.21
2023-03-30T14:06:51.377Z,65.10
2023-03-30T14:11:58.616Z,63.57
2023-03-30T14:17:02.434Z,63.09
2023-03-30T14:22:16.870Z,64.24
2023-03-30T14:27:18.470Z,63.66
2023-03-30T14:32:23.493Z,63.80
2023-03-30T14:37:26.336Z,63.82
2023-03-30T14:42:34.121Z,64.89
2023-03-30T14:47:37.748Z,63.91
2023-03-30T14:52:46.237Z,65.09
2023-03-30T14:57:49.273Z,64.53
2023-03-30T15:02:56.884Z,66.27
2023-03-30T15:07:58.863Z,65.73
2023-03-30T15:13:02.688Z,66.85
2023-03-30T15:18:05.218Z,71.73
2023-03-30T15:23:06.941Z,69.06
2023-03-30T15:28:19.098Z,68.84
2023-03-30T15:33:35.022Z,68.83
2023-03-30T15:38:52.974Z,70.38
2023-03-30T15:43:56.307Z,72.37
2023-03-30T15:48:58.099Z,74.35
2023-03-30T15:54:01.914Z,73.37
2023-03-30T15:59:04.372Z,91.68
2023-03-30T16:04:07.493Z,97.98
2023-03-30T16:09:09.376Z,99.47
2023-03-30T16:14:14.138Z,98.00
2023-03-30T16:19:18.639Z,99.92
2023-03-30T16:24:20.345Z,100.00
2023-03-30T16:29:24.172Z,100.00
2023-03-30T16:34:26.394Z,100.00
2023-03-30T16:39:29.755Z,100.00
2023-03-30T16:44:31.543Z,100.00
2023-03-30T16:49:33.227Z,100.00
2023-03-30T16:54:34.867Z,99.34
2023-03-30T16:59:36.473Z,95.35
2023-03-30T17:04:38.116Z,91.16
2023-03-30T17:09:39.726Z,92.73
2023-03-30T17:14:43.026Z,90.14
2023-03-30T17:19:44.753Z,89.42
2023-03-30T17:24:46.458Z,88.62
2023-03-30T17:29:48.091Z,88.57
2023-03-30T17:34:49.689Z,87.68
2023-03-30T17:39:51.286Z,87.42
2023-03-30T17:44:52.900Z,87.35
2023-03-30T17:49:54.530Z,87.55
2023-03-30T17:54:57.204Z,88.73
2023-03-30T17:59:58.797Z,87.95
2023-03-30T18:05:00.417Z,89.21
2023-03-30T18:10:02.553Z,88.85
2023-03-30T18:15:04.436Z,88.97
2023-03-30T18:20:14.198Z,89.61
2023-03-30T18:25:25.883Z,89.25
2023-03-30T18:30:37.715Z,90.04
2023-03-30T18:35:39.610Z,89.29
2023-03-30T18:40:50.147Z,90.16
2023-03-30T18:45:52.442Z,89.87
2023-03-30T18:50:55.108Z,90.00
2023-03-30T18:56:00.396Z,90.43
2023-03-30T19:01:02.550Z,88.44
2023-03-30T19:06:04.503Z,88.25
2023-03-30T19:11:07.546Z,88.33
2023-03-30T19:16:09.267Z,89.12
2023-03-30T19:21:15.436Z,88.84
2023-03-30T19:26:17.050Z,88.54
2023-03-30T19:31:18.949Z,88.85
2023-03-30T19:36:23.301Z,89.74
2023-03-30T19:41:26.851Z,89.61
2023-03-30T19:46:28.559Z,88.61
2023-03-30T19:51:30.374Z,88.55
2023-03-30T19:56:32.183Z,88.30
2023-03-30T20:01:33.834Z,87.66
2023-03-30T20:06:35.987Z,87.61
2023-03-30T20:11:37.655Z,87.63
2023-03-30T20:16:39.743Z,86.75
2023-03-30T20:21:41.732Z,87.12
2023-03-30T20:26:43.373Z,87.31
2023-03-30T20:31:46.308Z,87.46
2023-03-30T20:36:49.936Z,87.98
2023-03-30T20:41:54.034Z,87.46
2023-03-30T20:46:59.938Z,87.55
2023-03-30T20:52:01.995Z,87.42
2023-03-30T20:57:04.452Z,87.35
2023-03-30T21:02:06.404Z,87.80
2023-03-30T21:07:10.277Z,88.53
2023-03-30T21:12:11.973Z,89.15
2023-03-30T21:17:13.676Z,88.50
2023-03-30T21:22:18.060Z,89.17
2023-03-30T21:27:19.668Z,89.43
2023-03-30T21:32:21.358Z,89.46
2023-03-30T21:37:22.980Z,89.22
2023-03-30T21:42:24.646Z,88.98
2023-03-30T21:47:26.261Z,89.47
2023-03-30T21:52:28.925Z,89.17
2023-03-30T21:57:30.617Z,89.01
2023-03-30T22:02:32.286Z,87.31
2023-03-30T22:07:33.915Z,86.92
2023-03-30T22:12:35.562Z,87.14
2023-03-30T22:17:41.836Z,86.46
2023-03-30T22:22:44.123Z,86.86
2023-03-30T22:27:45.917Z,87.25
2023-03-30T22:32:47.601Z,86.33
2023-03-30T22:37:49.264Z,86.90
2023-03-30T22:42:50.866Z,87.54
2023-03-30T22:47:52.561Z,87.31
2023-03-30T22:52:56.587Z,87.74
2023-03-30T22:57:58.260Z,87.79
2023-03-30T23:03:00.024Z,87.65
2023-03-30T23:08:01.756Z,86.83
2023-03-30T23:13:04.614Z,87.05
2023-03-30T23:18:06.250Z,86.68
2023-03-30T23:23:07.872Z,87.20
2023-03-30T23:28:09.508Z,87.02
2023-03-30T23:33:12.150Z,87.59
2023-03-30T23:38:13.760Z,87.59
2023-03-30T23:43:15.522Z,87.68
2023-03-30T23:48:17.371Z,86.89
2023-03-30T23:53:19.880Z,87.01
2023-03-30T23:58:22.252Z,86.75
